createdAt,value
2022-08-18T00:02:01.947Z,80.98
2022-08-18T00:04:36.208Z,81.53
2022-08-18T00:07:08.104Z,80.96
2022-08-18T00:09:37.232Z,81.36
2022-08-18T00:12:09.275Z,81.08
2022-08-18T00:14:35.913Z,80.92
2022-08-18T00:17:02.498Z,80.24
2022-08-18T00:19:47.665Z,79.89
2022-08-18T00:22:18.525Z,79.10
2022-08-18T00:24:49.066Z,79.17
2022-08-18T00:27:23.186Z,79.26
2022-08-18T00:29:51.931Z,79.11
2022-08-18T00:32:23.922Z,79.82
2022-08-18T00:34:51.674Z,80.29
2022-08-18T00:37:18.325Z,80.59
2022-08-18T00:39:47.757Z,80.60
2022-08-18T00:42:33.404Z,80.47
2022-08-18T00:45:04.192Z,79.47
2022-08-18T00:47:40.992Z,80.26
2022-08-18T00:50:33.731Z,80.23
2022-08-18T00:53:07.428Z,80.70
2022-08-18T00:55:35.041Z,80.04
2022-08-18T00:58:12.944Z,80.30
2022-08-18T01:00:39.653Z,80.79
2022-08-18T01:03:12.524Z,80.97
2022-08-18T01:05:46.108Z,81.84
2022-08-18T01:08:15.791Z,81.40
2022-08-18T01:10:45.395Z,81.21
2022-08-18T01:13:12.360Z,81.35
2022-08-18T01:15:39.069Z,81.58
2022-08-18T01:18:33.885Z,81.34
2022-08-18T01:21:45.119Z,80.59
2022-08-18T01:24:13.053Z,81.06
2022-08-18T01:26:46.396Z,81.55
2022-08-18T01:29:18.676Z,81.81
2022-08-18T01:31:56.224Z,82.00
2022-08-18T01:34:25.585Z,81.52
2022-08-18T01:36:53.044Z,81.86
2022-08-18T01:40:59.843Z,82.18
2022-08-18T01:42:07.989Z,82.09
2022-08-18T01:44:34.714Z,81.75
2022-08-18T01:47:01.415Z,81.53
2022-08-18T01:49:30.938Z,81.23
2022-08-18T01:51:57.745Z,82.06
2022-08-18T01:54:24.637Z,81.95
2022-08-18T01:56:52.632Z,81.80
2022-08-18T01:59:19.294Z,82.00
2022-08-18T02:01:50.522Z,82.01
2022-08-18T02:04:36.686Z,81.03
2022-08-18T02:07:08.449Z,80.78
2022-08-18T02:09:37.386Z,80.99
2022-08-18T02:12:05.758Z,81.39
2022-08-18T02:14:33.034Z,81.81
2022-08-18T02:17:02.580Z,81.79
2022-08-18T02:19:49.735Z,82.59
2022-08-18T02:22:19.574Z,83.37
2022-08-18T02:24:47.142Z,83.77
2022-08-18T02:27:15.438Z,84.06
2022-08-18T02:29:42.248Z,84.55
2022-08-18T02:32:09.324Z,85.68
2022-08-18T02:34:36.323Z,87.06
2022-08-18T02:37:04.078Z,86.51
2022-08-18T02:39:30.719Z,84.62
2022-08-18T02:41:57.723Z,81.24
2022-08-18T02:44:24.359Z,83.44
2022-08-18T02:46:54.609Z,83.38
2022-08-18T02:49:21.347Z,82.34
2022-08-18T02:51:48.143Z,82.32
2022-08-18T02:54:14.829Z,82.57
2022-08-18T02:56:42.630Z,83.09
2022-08-18T02:59:12.955Z,84.29
2022-08-18T03:01:42.469Z,85.18
2022-08-18T03:04:11.171Z,83.42
2022-08-18T03:06:39.358Z,83.91
2022-08-18T03:09:07.906Z,84.24
2022-08-18T03:11:35.296Z,84.13
2022-08-18T03:14:02.416Z,85.38
2022-08-18T03:16:32.925Z,84.06
2022-08-18T03:19:02.422Z,84.79
2022-08-18T03:21:32.165Z,85.46
2022-08-18T03:24:01.440Z,85.45
2022-08-18T03:26:31.099Z,85.13
2022-08-18T03:28:59.883Z,84.94
2022-08-18T03:31:29.980Z,84.20
2022-08-18T03:33:59.767Z,85.01
2022-08-18T03:36:32.117Z,85.75
2022-08-18T03:39:02.247Z,83.88
2022-08-18T03:41:56.942Z,85.65
2022-08-18T03:44:16.137Z,86.28
2022-08-18T03:46:44.599Z,86.31
2022-08-18T03:49:12.345Z,85.79
2022-08-18T03:51:43.476Z,85.28
2022-08-18T03:54:13.158Z,84.65
2022-08-18T03:56:41.369Z,85.56
2022-08-18T03:59:17.055Z,85.38
2022-08-18T04:01:45.588Z,85.85
2022-08-18T04:04:15.742Z,85.04
2022-08-18T04:06:50.990Z,84.10
2022-08-18T04:09:19.030Z,85.39
2022-08-18T04:11:46.466Z,85.72
2022-08-18T04:14:16.411Z,84.38
2022-08-18T04:16:44.473Z,84.04
2022-08-18T04:19:13.688Z,84.88
2022-08-18T04:21:42.439Z,84.60
2022-08-18T04:24:11.652Z,84.59
2022-08-18T04:26:43.255Z,85.34
2022-08-18T04:29:11.531Z,86.08
2022-08-18T04:31:38.822Z,85.85
2022-08-18T04:34:06.203Z,85.57
2022-08-18T04:36:35.045Z,84.98
2022-08-18T04:39:04.593Z,85.46
2022-08-18T04:41:31.343Z,86.83
2022-08-18T04:44:00.050Z,87.04
2022-08-18T04:46:27.364Z,86.73
2022-08-18T04:48:59.267Z,86.56
2022-08-18T04:52:37.208Z,86.70
2022-08-18T04:54:16.191Z,87.64
2022-08-18T04:56:43.731Z,87.81
2022-08-18T04:59:12.874Z,84.57
2022-08-18T05:01:48.412Z,84.05
2022-08-18T05:04:17.447Z,84.63
2022-08-18T05:06:45.499Z,86.13
2022-08-18T05:09:16.874Z,87.45
2022-08-18T05:11:50.843Z,86.58
2022-08-18T05:14:18.432Z,86.73
2022-08-18T05:16:48.709Z,86.98
2022-08-18T05:19:26.146Z,87.35
2022-08-18T05:21:59.804Z,87.04
2022-08-18T05:24:34.104Z,87.23
2022-08-18T05:27:04.698Z,87.08
2022-08-18T05:29:41.684Z,86.46
2022-08-18T05:32:42.522Z,86.25
2022-08-18T05:35:07.394Z,85.82
2022-08-18T05:37:57.760Z,85.81
2022-08-18T05:40:25.905Z,85.02
2022-08-18T05:42:57.370Z,84.99
2022-08-18T05:45:24.390Z,85.25
2022-08-18T05:47:51.542Z,84.45
2022-08-18T05:50:20.814Z,85.13
2022-08-18T05:53:13.403Z,86.49
2022-08-18T05:56:13.213Z,87.02
2022-08-18T05:58:50.073Z,85.70
2022-08-18T06:01:26.033Z,85.73
2022-08-18T06:03:59.749Z,84.92
2022-08-18T06:06:30.303Z,85.15
2022-08-18T06:09:24.003Z,86.46
2022-08-18T06:11:53.801Z,86.37
2022-08-18T06:14:20.451Z,84.67
2022-08-18T06:17:28.882Z,86.16
2022-08-18T06:20:25.980Z,85.75
2022-08-18T06:23:20.451Z,86.48
2022-08-18T06:25:47.046Z,84.50
2022-08-18T06:28:16.150Z,85.02
2022-08-18T06:30:49.434Z,85.75
2022-08-18T06:33:29.713Z,86.59
2022-08-18T06:36:02.659Z,86.02
2022-08-18T06:38:39.678Z,86.31
2022-08-18T06:41:41.776Z,87.25
2022-08-18T06:44:09.709Z,86.62
2022-08-18T06:46:56.439Z,86.96
2022-08-18T06:49:58.354Z,87.55
2022-08-18T06:52:29.333Z,87.19
2022-08-18T06:55:01.462Z,87.32
2022-08-18T06:57:30.103Z,87.66
2022-08-18T07:00:02.582Z,87.69
2022-08-18T07:02:40.012Z,87.26
2022-08-18T07:05:22.693Z,88.50
2022-08-18T07:08:18.550Z,88.49
2022-08-18T07:10:52.647Z,87.23
2022-08-18T07:13:21.310Z,86.34
2022-08-18T07:15:49.863Z,86.56
2022-08-18T07:18:23.484Z,86.34
2022-08-18T07:21:01.378Z,85.81
2022-08-18T07:23:38.655Z,85.54
2022-08-18T07:26:15.568Z,85.20
2022-08-18T07:28:49.021Z,85.20
2022-08-18T07:31:21.544Z,84.70
2022-08-18T07:33:55.893Z,85.85
2022-08-18T07:36:26.895Z,84.77
2022-08-18T07:39:10.697Z,85.89
2022-08-18T07:41:49.279Z,85.47
2022-08-18T07:44:25.523Z,83.80
2022-08-18T07:46:59.995Z,83.67
2022-08-18T07:49:33.445Z,83.31
2022-08-18T07:52:36.438Z,84.12
2022-08-18T07:55:14.225Z,80.88
2022-08-18T07:58:05.792Z,82.44
2022-08-18T08:01:00.611Z,82.13
2022-08-18T08:03:58.553Z,82.21
2022-08-18T08:06:45.120Z,84.25
2022-08-18T08:09:47.153Z,80.45
2022-08-18T08:12:31.221Z,81.48
2022-08-18T08:15:17.657Z,81.23
2022-08-18T08:17:59.062Z,76.85
2022-08-18T08:20:39.502Z,77.05
2022-08-18T08:23:25.633Z,80.18
2022-08-18T08:25:52.291Z,79.77
2022-08-18T08:28:56.396Z,78.95
2022-08-18T08:31:38.171Z,81.65
2022-08-18T08:34:29.754Z,82.38
2022-08-18T08:37:05.192Z,81.58
2022-08-18T08:39:47.081Z,83.33
2022-08-18T08:42:40.735Z,83.16
2022-08-18T08:45:15.363Z,82.78
2022-08-18T08:48:09.390Z,77.74
2022-08-18T08:50:43.488Z,76.11
2022-08-18T08:53:24.627Z,76.61
2022-08-18T08:55:58.788Z,78.74
2022-08-18T08:58:40.409Z,79.17
2022-08-18T09:01:12.565Z,81.42
2022-08-18T09:03:57.736Z,76.69
2022-08-18T09:06:30.332Z,78.23
2022-08-18T09:09:09.048Z,77.29
2022-08-18T09:11:58.366Z,78.50
2022-08-18T09:14:37.230Z,77.24
2022-08-18T09:17:06.854Z,77.89
2022-08-18T09:20:28.034Z,78.26
2022-08-18T09:23:07.243Z,79.51
2022-08-18T09:25:41.769Z,79.95
2022-08-18T09:28:11.869Z,80.21
2022-08-18T09:34:39.313Z,80.55
2022-08-18T09:37:18.162Z,79.11
2022-08-18T09:43:39.197Z,82.34
2022-08-18T09:46:07.962Z,80.48
2022-08-18T09:48:43.345Z,80.97
2022-08-18T09:51:18.748Z,79.17
2022-08-18T09:53:45.860Z,79.29
2022-08-18T09:56:19.602Z,80.24
2022-08-18T09:59:02.969Z,78.91
2022-08-18T10:01:40.546Z,79.12
2022-08-18T10:04:28.187Z,79.08
2022-08-18T10:07:38.843Z,77.55
2022-08-18T10:11:01.371Z,78.38
2022-08-18T10:13:56.851Z,79.85
2022-08-18T10:17:15.883Z,81.40
2022-08-18T10:19:39.859Z,81.98
2022-08-18T10:22:10.320Z,81.72
2022-08-18T10:24:53.858Z,81.24
2022-08-18T10:27:44.513Z,80.16
2022-08-18T10:30:34.638Z,81.20
2022-08-18T10:33:59.849Z,82.48
2022-08-18T10:36:46.053Z,82.43
2022-08-18T10:39:19.285Z,82.87
2022-08-18T10:41:58.810Z,84.93
2022-08-18T10:44:30.843Z,85.90
2022-08-18T10:47:00.276Z,89.62
2022-08-18T10:49:31.946Z,92.49
2022-08-18T10:52:04.569Z,92.77
2022-08-18T10:54:34.402Z,91.97
2022-08-18T10:57:20.120Z,92.73
2022-08-18T11:00:07.893Z,92.99
2022-08-18T11:02:39.471Z,92.36
2022-08-18T11:05:10.106Z,92.78
2022-08-18T11:07:42.934Z,92.71
2022-08-18T11:13:31.443Z,93.97
2022-08-18T11:19:05.418Z,92.83
2022-08-18T11:21:42.113Z,91.85
2022-08-18T11:24:13.411Z,92.06
2022-08-18T11:26:52.757Z,92.53
2022-08-18T11:29:24.600Z,93.36
2022-08-18T11:31:59.653Z,93.37
2022-08-18T11:34:35.037Z,92.60
2022-08-18T11:37:22.177Z,93.00
2022-08-18T11:39:49.885Z,93.48
2022-08-18T11:42:25.017Z,92.39
2022-08-18T11:44:55.077Z,92.47
2022-08-18T11:47:27.678Z,94.13
2022-08-18T11:50:13.045Z,95.85
2022-08-18T11:52:53.826Z,95.69
2022-08-18T11:55:31.758Z,94.88
2022-08-18T11:58:00.144Z,94.71
2022-08-18T12:00:45.701Z,94.61
2022-08-18T12:03:50.738Z,94.54
2022-08-18T12:06:26.885Z,93.07
2022-08-18T12:09:03.899Z,93.26
2022-08-18T12:11:36.435Z,93.31
2022-08-18T12:14:30.661Z,93.85
2022-08-18T12:17:01.400Z,93.36
2022-08-18T12:19:31.026Z,93.03
2022-08-18T12:22:00.844Z,92.88
2022-08-18T12:24:36.474Z,93.62
2022-08-18T12:27:20.732Z,93.97
2022-08-18T12:29:53.246Z,94.51
2022-08-18T12:32:48.747Z,94.49
2022-08-18T12:35:14.041Z,95.80
2022-08-18T12:40:32.565Z,95.08
2022-08-18T12:42:59.626Z,94.46
2022-08-18T12:45:27.916Z,94.50
2022-08-18T12:47:55.679Z,94.14
2022-08-18T12:50:31.909Z,94.19
2022-08-18T12:53:03.472Z,95.57
2022-08-18T12:55:37.682Z,95.17
2022-08-18T12:58:10.378Z,93.92
2022-08-18T13:00:39.474Z,94.58
2022-08-18T13:03:07.444Z,95.86
2022-08-18T13:05:37.336Z,97.14
2022-08-18T13:08:05.588Z,95.70
2022-08-18T13:10:44.880Z,93.70
2022-08-18T13:13:17.384Z,93.36
2022-08-18T13:15:57.826Z,94.57
2022-08-18T13:18:27.304Z,95.59
2022-08-18T13:20:55.550Z,95.67
2022-08-18T13:23:25.064Z,95.25
2022-08-18T13:25:52.269Z,94.58
2022-08-18T13:28:30.546Z,96.43
2022-08-18T13:30:57.651Z,94.58
2022-08-18T13:33:34.485Z,94.25
2022-08-18T13:36:12.237Z,93.94
2022-08-18T13:38:41.462Z,92.67
2022-08-18T13:41:15.530Z,93.69
2022-08-18T13:43:44.466Z,92.65
2022-08-18T13:46:14.422Z,92.81
2022-08-18T13:48:42.976Z,92.44
2022-08-18T13:51:16.822Z,92.41
2022-08-18T13:53:57.675Z,90.90
2022-08-18T13:56:31.069Z,92.79
2022-08-18T13:58:58.465Z,90.18
2022-08-18T14:01:44.187Z,91.90
2022-08-18T14:04:15.159Z,91.95
2022-08-18T14:06:57.478Z,91.40
2022-08-18T14:09:27.801Z,90.25
2022-08-18T14:12:26.076Z,90.17
2022-08-18T14:14:57.074Z,90.52
2022-08-18T14:17:25.473Z,88.22
2022-08-18T14:20:15.165Z,88.04
2022-08-18T14:23:10.331Z,87.51
2022-08-18T14:25:56.234Z,86.79
2022-08-18T14:28:24.696Z,90.01
2022-08-18T14:30:54.454Z,87.43
2022-08-18T14:33:34.069Z,90.64
2022-08-18T14:36:10.342Z,88.80
2022-08-18T14:38:38.396Z,88.57
2022-08-18T14:41:07.836Z,87.43
2022-08-18T14:43:55.605Z,89.04
2022-08-18T14:46:23.430Z,88.21
2022-08-18T14:49:00.182Z,88.74
2022-08-18T14:51:31.540Z,89.60
2022-08-18T14:54:01.120Z,89.58
2022-08-18T14:56:29.423Z,90.20
2022-08-18T14:58:56.408Z,90.02
2022-08-18T15:01:24.623Z,90.08
2022-08-18T15:03:54.411Z,90.65
2022-08-18T15:06:22.711Z,88.61
2022-08-18T15:08:49.902Z,89.38
2022-08-18T15:11:17.035Z,87.78
2022-08-18T15:13:46.530Z,88.30
2022-08-18T15:16:15.374Z,87.57
2022-08-18T15:18:46.588Z,87.90
2022-08-18T15:21:38.514Z,87.11
2022-08-18T15:24:25.426Z,88.91
2022-08-18T15:26:57.861Z,87.21
2022-08-18T15:29:29.280Z,87.49
2022-08-18T15:32:02.296Z,87.61
2022-08-18T15:34:46.738Z,88.35
2022-08-18T15:37:19.470Z,87.22
2022-08-18T15:39:55.877Z,89.23
2022-08-18T15:42:23.494Z,88.34
2022-08-18T15:44:50.388Z,84.71
2022-08-18T15:47:20.689Z,84.14
2022-08-18T15:49:47.738Z,86.02
2022-08-18T15:52:17.685Z,86.05
2022-08-18T15:54:44.536Z,84.13
2022-08-18T15:57:38.520Z,84.05
2022-08-18T16:00:04.718Z,80.95
2022-08-18T16:02:39.650Z,80.35
2022-08-18T16:05:10.143Z,80.21
2022-08-18T16:07:41.119Z,79.31
2022-08-18T16:10:12.822Z,79.67
2022-08-18T16:12:40.956Z,79.34
2022-08-18T16:15:19.837Z,79.07
2022-08-18T16:17:50.652Z,79.18
2022-08-18T16:20:18.974Z,78.81
2022-08-18T16:22:46.867Z,78.35
2022-08-18T16:25:14.947Z,79.24
2022-08-18T16:27:42.908Z,79.91
2022-08-18T16:30:12.980Z,78.04
2022-08-18T16:32:39.713Z,77.84
2022-08-18T16:35:07.052Z,77.07
2022-08-18T16:37:34.109Z,77.15
2022-08-18T16:40:01.028Z,76.95
2022-08-18T16:42:31.176Z,76.96
2022-08-18T16:44:57.784Z,76.94
2022-08-18T16:47:25.109Z,76.34
2022-08-18T16:49:52.870Z,76.34
2022-08-18T16:52:25.449Z,76.72
2022-08-18T16:54:58.051Z,77.02
2022-08-18T16:57:53.984Z,77.27
2022-08-18T17:00:41.444Z,77.40
2022-08-18T17:03:27.816Z,77.28
2022-08-18T17:06:05.890Z,77.85
2022-08-18T17:08:34.175Z,78.72
2022-08-18T17:11:09.428Z,78.78
2022-08-18T17:13:38.810Z,79.95
2022-08-18T17:16:06.164Z,79.98
2022-08-18T17:18:33.292Z,79.54
2022-08-18T17:21:04.812Z,79.98
2022-08-18T17:23:32.393Z,78.53
2022-08-18T17:26:00.056Z,78.71
2022-08-18T17:28:39.964Z,79.52
2022-08-18T17:31:19.934Z,81.18
2022-08-18T17:33:46.865Z,82.99
2022-08-18T17:36:21.217Z,83.75
2022-08-18T17:39:08.292Z,84.37
2022-08-18T17:41:57.971Z,85.98
2022-08-18T17:44:31.165Z,85.78
2022-08-18T17:47:02.305Z,86.17
2022-08-18T17:50:26.556Z,85.54
2022-08-18T17:52:54.210Z,85.50
2022-08-18T17:55:52.517Z,87.27
2022-08-18T17:58:34.938Z,86.25
2022-08-18T18:01:03.669Z,86.58
2022-08-18T18:03:30.216Z,85.44
2022-08-18T18:06:09.321Z,85.98
2022-08-18T18:09:05.135Z,86.57
2022-08-18T18:11:35.239Z,86.69
2022-08-18T18:14:30.363Z,87.65
2022-08-18T18:16:59.770Z,87.23
2022-08-18T18:19:30.572Z,87.91
2022-08-18T18:22:07.111Z,88.43
2022-08-18T18:24:36.697Z,87.77
2022-08-18T18:27:24.832Z,88.30
2022-08-18T18:29:56.332Z,88.27
2022-08-18T18:32:26.633Z,88.35
2022-08-18T18:35:11.320Z,87.20
2022-08-18T18:37:47.657Z,87.77
2022-08-18T18:40:23.635Z,86.73
2022-08-18T18:42:50.918Z,89.06
2022-08-18T18:45:27.836Z,88.97
2022-08-18T18:48:45.321Z,88.88
2022-08-18T18:51:11.998Z,88.10
2022-08-18T18:54:02.294Z,88.31
2022-08-18T18:56:36.223Z,88.06
2022-08-18T18:59:18.278Z,88.25
2022-08-18T19:01:56.538Z,87.66
2022-08-18T19:04:36.838Z,87.39
2022-08-18T19:07:21.154Z,86.90
2022-08-18T19:10:09.870Z,87.60
2022-08-18T19:12:52.711Z,87.85
2022-08-18T19:15:21.159Z,88.34
2022-08-18T19:18:22.277Z,89.22
2022-08-18T19:22:04.739Z,88.61
2022-08-18T19:23:50.762Z,89.21
2022-08-18T19:26:27.015Z,89.17
2022-08-18T19:29:01.169Z,89.53
2022-08-18T19:31:45.193Z,90.06
2022-08-18T19:34:25.547Z,88.29
2022-08-18T19:37:27.404Z,88.45
2022-08-18T19:39:58.165Z,87.62
2022-08-18T19:42:41.540Z,88.42
2022-08-18T19:45:22.522Z,88.98
2022-08-18T19:47:56.867Z,89.76
2022-08-18T19:50:33.510Z,90.65
2022-08-18T19:53:04.829Z,90.04
2022-08-18T19:55:37.530Z,89.62
2022-08-18T19:58:32.296Z,89.69
2022-08-18T20:01:04.748Z,88.72
2022-08-18T20:03:52.080Z,89.41
2022-08-18T20:06:33.813Z,88.47
2022-08-18T20:09:35.689Z,88.52
2022-08-18T20:12:07.915Z,88.22
2022-08-18T20:14:38.041Z,88.57
2022-08-18T20:17:22.626Z,88.67
2022-08-18T20:19:49.896Z,88.74
2022-08-18T20:22:24.308Z,89.31
2022-08-18T20:25:08.273Z,89.54
2022-08-18T20:27:37.896Z,89.74
2022-08-18T20:30:19.681Z,89.58
2022-08-18T20:33:15.591Z,89.86
2022-08-18T20:36:13.289Z,90.09
2022-08-18T20:38:47.138Z,91.19
2022-08-18T20:41:29.544Z,91.00
2022-08-18T20:44:28.983Z,91.03
2022-08-18T20:47:09.453Z,91.46
2022-08-18T20:49:42.645Z,91.07
2022-08-18T20:52:29.129Z,91.98
2022-08-18T20:55:17.115Z,92.78
2022-08-18T20:57:44.130Z,92.26
2022-08-18T21:00:26.786Z,91.99
2022-08-18T21:02:57.095Z,90.45
2022-08-18T21:05:28.601Z,89.83
2022-08-18T21:08:26.460Z,89.77
2022-08-18T21:11:19.989Z,88.81
2022-08-18T21:13:58.808Z,89.82
2022-08-18T21:16:37.923Z,89.59
2022-08-18T21:19:17.946Z,89.70
2022-08-18T21:21:49.308Z,89.01
2022-08-18T21:24:43.826Z,88.95
2022-08-18T21:27:31.422Z,88.75
2022-08-18T21:30:02.878Z,88.37
2022-08-18T21:32:35.689Z,87.92
2022-08-18T21:35:20.311Z,87.32
2022-08-18T21:38:05.648Z,88.44
2022-08-18T21:40:39.380Z,89.43
2022-08-18T21:43:11.823Z,89.59
2022-08-18T21:45:48.201Z,89.00
2022-08-18T21:48:15.689Z,88.29
2022-08-18T21:50:51.699Z,88.76
2022-08-18T21:53:28.353Z,89.19
2022-08-18T21:55:57.313Z,89.34
2022-08-18T21:58:33.939Z,90.32
2022-08-18T22:01:28.341Z,89.07
2022-08-18T22:04:24.453Z,90.00
2022-08-18T22:06:57.581Z,89.46
2022-08-18T22:09:47.105Z,89.95
2022-08-18T22:12:45.470Z,89.86
2022-08-18T22:15:26.676Z,90.21
2022-08-18T22:18:05.360Z,89.88
2022-08-18T22:20:42.197Z,89.76
2022-08-18T22:23:30.490Z,88.20
2022-08-18T22:26:14.889Z,88.18
2022-08-18T22:29:20.657Z,89.21
2022-08-18T22:31:50.656Z,89.31
2022-08-18T22:34:27.000Z,89.16
2022-08-18T22:37:00.088Z,89.93
2022-08-18T22:39:29.261Z,89.72
2022-08-18T22:41:56.050Z,89.03
2022-08-18T22:44:23.182Z,88.34
2022-08-18T22:46:50.587Z,88.67
2022-08-18T22:49:17.537Z,89.81
2022-08-18T22:51:44.987Z,90.26
2022-08-18T22:54:14.762Z,90.65
2022-08-18T22:56:53.665Z,91.17
2022-08-18T22:59:21.956Z,90.46
2022-08-18T23:01:51.030Z,90.40
2022-08-18T23:04:20.818Z,90.69
2022-08-18T23:06:53.963Z,90.44
2022-08-18T23:09:26.097Z,90.30
2022-08-18T23:11:55.622Z,90.71
2022-08-18T23:14:22.601Z,90.64
2022-08-18T23:16:50.020Z,90.22
2022-08-18T23:19:19.351Z,90.96
2022-08-18T23:21:48.378Z,90.45
2022-08-18T23:24:16.916Z,90.71
2022-08-18T23:26:46.531Z,91.04
2022-08-18T23:29:14.337Z,89.99
2022-08-18T23:31:43.257Z,90.40
2022-08-18T23:34:13.152Z,89.52
2022-08-18T23:36:45.103Z,89.20
2022-08-18T23:39:13.716Z,89.89
2022-08-18T23:41:40.393Z,89.59
2022-08-18T23:44:07.092Z,88.84
2022-08-18T23:46:34.086Z,88.92
2022-08-18T23:49:03.758Z,89.63
2022-08-18T23:51:35.148Z,90.09
2022-08-18T23:54:10.299Z,90.58
2022-08-18T23:56:37.955Z,91.03
2022-08-18T23:59:06.480Z,91.03
